Time;durP1;ratioP1;P1;durP2;ratioP2;P2;SDS_P1;SDS_P2;PMS_P1;PMS_P2;Temp;Humidity;BMP_temperature;BMP_pressure;BME280_temperature;BME280_humidity;BME280_pressure;Samples;Min_cycle;Max_cycle;Signal;HPM_P1;HPM_P2
2023/10/28 00:02:05;;;;;;;1.40;1.30;;;;;;;22.17;63.07;95966.88;5041502;22;20647;-24
2023/10/28 00:04:32;;;;;;;1.50;1.40;;;;;;;22.17;63.05;95974.53;5030299;28;20210;-23
2023/10/28 00:06:59;;;;;;;1.43;1.33;;;;;;;22.17;63.24;95983.03;5030964;28;20201;-23
2023/10/28 00:09:25;;;;;;;1.60;1.50;;;;;;;22.17;63.21;95977.09;5024910;28;20221;-23
2023/10/28 00:11:52;;;;;;;2.47;1.77;;;;;;;22.12;63.25;95976.22;5030123;28;20316;-23
2023/10/28 00:14:20;;;;;;;2.27;1.50;;;;;;;22.17;63.19;95993.28;5028321;28;20259;-23
2023/10/28 00:16:48;;;;;;;1.30;1.20;;;;;;;22.17;63.07;95998.41;5028262;28;20293;-23
2023/10/28 00:19:16;;;;;;;1.50;1.40;;;;;;;22.18;63.26;96000.13;5027921;28;20271;-24
2023/10/28 00:21:43;;;;;;;1.30;1.20;;;;;;;22.19;63.16;95995.84;5027273;28;20225;-23
2023/10/28 00:24:10;;;;;;;2.17;1.40;;;;;;;22.18;63.16;96002.69;5027615;28;20197;-23
2023/10/28 00:26:36;;;;;;;1.60;1.40;;;;;;;22.18;63.32;95997.56;5031056;28;20208;-23
2023/10/28 00:29:04;;;;;;;1.30;1.20;;;;;;;22.19;63.19;96001.81;5031105;28;20592;-24
2023/10/28 00:31:31;;;;;;;1.50;1.40;;;;;;;22.19;63.12;95999.28;5030430;28;20226;-23
2023/10/28 00:33:58;;;;;;;1.33;1.23;;;;;;;22.19;63.10;96003.50;5026963;28;20300;-23
2023/10/28 00:36:24;;;;;;;1.37;1.27;;;;;;;22.18;63.00;96005.25;5023965;28;20206;-23
2023/10/28 00:38:51;;;;;;;2.67;1.47;;;;;;;22.18;63.10;96009.50;5030751;28;21230;-23
2023/10/28 00:41:17;;;;;;;2.97;1.60;;;;;;;22.17;63.23;96008.63;5030569;28;20275;-23
2023/10/28 00:43:44;;;;;;;1.50;1.40;;;;;;;22.16;63.12;96000.94;5031024;28;20419;-25
2023/10/28 00:46:11;;;;;;;1.17;1.17;;;;;;;22.15;63.20;96005.25;5030735;28;20197;-22
2023/10/28 00:48:38;;;;;;;1.53;1.43;;;;;;;22.17;63.13;96002.69;5021168;28;20264;-23
2023/10/28 00:51:05;;;;;;;2.53;1.40;;;;;;;22.17;63.33;96010.34;5026352;28;20201;-23
2023/10/28 00:53:31;;;;;;;1.30;1.20;;;;;;;22.16;63.31;96011.19;5013299;28;20732;-23
2023/10/28 00:55:59;;;;;;;1.43;1.20;;;;;;;22.17;63.23;96010.34;5024467;28;20233;-23
2023/10/28 00:58:26;;;;;;;1.43;1.33;;;;;;;22.18;63.06;96014.63;5026094;28;20222;-23
2023/10/28 01:00:53;;;;;;;1.53;1.43;;;;;;;22.18;63.23;96017.16;5027080;28;20789;-27
2023/10/28 01:03:20;;;;;;;1.30;1.20;;;;;;;22.17;63.09;96023.97;5034185;28;20473;-23
2023/10/28 01:05:46;;;;;;;1.40;1.30;;;;;;;22.18;63.16;96020.59;5032927;28;20205;-23
2023/10/28 01:08:13;;;;;;;1.27;1.20;;;;;;;22.18;63.26;96015.47;5027786;28;20202;-23
2023/10/28 01:10:40;;;;;;;1.73;1.60;;;;;;;22.18;63.24;96018.03;5023556;28;20189;-24
2023/10/28 01:13:06;;;;;;;1.40;1.30;;;;;;;22.18;63.08;96019.72;5028888;28;20222;-23
2023/10/28 01:15:33;;;;;;;1.60;1.50;;;;;;;22.17;63.19;96013.75;5034116;28;20233;-23
2023/10/28 01:17:59;;;;;;;1.97;1.40;;;;;;;22.17;63.18;96018.03;5030728;28;20208;-30
2023/10/28 01:20:26;;;;;;;1.50;1.40;;;;;;;22.16;62.97;96012.06;5022127;28;20232;-24
2023/10/28 01:22:53;;;;;;;1.60;1.30;;;;;;;22.16;63.06;96016.31;5030230;28;20221;-25
2023/10/28 01:25:20;;;;;;;1.70;1.40;;;;;;;22.15;63.17;96012.91;5034635;28;20233;-24
2023/10/28 01:27:48;;;;;;;1.20;1.10;;;;;;;22.15;63.41;96012.91;5019371;28;20202;-23
2023/10/28 01:30:16;;;;;;;1.30;1.20;;;;;;;22.16;63.25;96018.88;5026720;28;20197;-25
2023/10/28 01:32:44;;;;;;;1.90;1.40;;;;;;;22.16;63.20;96012.06;5026362;28;20597;-23
2023/10/28 01:35:12;;;;;;;1.30;1.20;;;;;;;22.17;63.24;96018.88;5023166;28;20208;-30
2023/10/28 01:37:39;;;;;;;1.50;1.40;;;;;;;22.17;63.60;96018.03;5029390;28;20208;-23
2023/10/28 01:40:13;;;;;;;1.47;1.23;;;;;;;22.17;63.09;96020.59;5033210;28;20217;-23
2023/10/28 01:42:41;;;;;;;1.63;1.40;;;;;;;22.18;63.19;96024.84;5033975;28;20225;-23
2023/10/28 01:45:09;;;;;;;1.50;1.40;;;;;;;22.18;63.32;96020.59;5021682;28;20257;-23
2023/10/28 01:47:39;;;;;;;2.00;1.30;;;;;;;22.18;63.12;96022.28;5022832;28;20252;-23
2023/10/28 01:50:06;;;;;;;1.33;1.23;;;;;;;22.18;63.26;96025.72;5020216;28;20202;-26
2023/10/28 01:52:33;;;;;;;1.10;1.10;;;;;;;22.17;63.06;96031.66;5022554;28;20651;-23
2023/10/28 01:54:59;;;;;;;1.30;1.20;;;;;;;22.17;63.30;96026.53;5024933;28;20236;-24
2023/10/28 01:57:26;;;;;;;1.30;1.20;;;;;;;22.17;63.03;96023.16;5029526;28;20225;-24
2023/10/28 01:59:53;;;;;;;2.57;1.40;;;;;;;22.15;63.17;96030.81;5028404;28;20569;-24
2023/10/28 02:02:19;;;;;;;1.47;1.20;;;;;;;22.16;63.11;96035.09;5025634;28;20295;-23
2023/10/28 02:04:46;;;;;;;1.43;1.33;;;;;;;22.15;63.31;96035.94;5033908;28;20210;-26
2023/10/28 02:07:13;;;;;;;1.40;1.30;;;;;;;22.16;63.23;96035.09;5030073;28;20194;-23
2023/10/28 02:09:39;;;;;;;1.60;1.40;;;;;;;22.16;63.13;96042.75;5023830;28;20229;-24
2023/10/28 02:12:06;;;;;;;2.60;1.30;;;;;;;22.16;63.19;96042.75;5031818;28;20245;-23
2023/10/28 02:14:33;;;;;;;1.87;1.30;;;;;;;22.17;63.26;96038.50;5025926;28;20592;-25
2023/10/28 02:16:59;;;;;;;1.40;1.30;;;;;;;22.16;63.20;96036.78;5025421;28;20284;-23
2023/10/28 02:19:26;;;;;;;1.37;1.27;;;;;;;22.17;63.21;96035.94;5018596;28;20202;-23
2023/10/28 02:21:54;;;;;;;1.30;1.20;;;;;;;22.16;63.32;96042.75;5029922;28;20225;-23
2023/10/28 02:24:38;;;;;;;1.57;1.30;;;;;;;22.18;63.39;96040.19;5030356;28;20197;-25
2023/10/28 02:27:04;;;;;;;1.27;1.20;;;;;;;22.17;63.15;96043.63;5028550;28;20589;-30
2023/10/28 02:29:31;;;;;;;1.30;1.20;;;;;;;22.18;63.21;96047.88;5031766;28;20237;-23
2023/10/28 02:31:58;;;;;;;1.87;1.20;;;;;;;22.18;63.33;96041.06;5024547;28;20234;-23
2023/10/28 02:34:24;;;;;;;1.20;1.10;;;;;;;22.19;63.31;96042.75;5033362;28;20213;-24
2023/10/28 02:36:51;;;;;;;1.40;1.30;;;;;;;22.18;63.36;96035.94;5027218;28;20201;-23
2023/10/28 02:39:18;;;;;;;1.40;1.30;;;;;;;22.19;63.19;96047.03;5027198;28;20205;-23
2023/10/28 02:41:44;;;;;;;1.20;1.10;;;;;;;22.19;63.15;96035.09;5031230;28;20684;-23
2023/10/28 02:44:11;;;;;;;1.37;1.23;;;;;;;22.19;63.21;96044.47;5030460;28;20201;-22
2023/10/28 02:46:38;;;;;;;1.30;1.20;;;;;;;22.18;63.30;96051.31;5028085;28;20201;-24
2023/10/28 02:49:05;;;;;;;1.30;1.20;;;;;;;22.18;63.19;96048.75;5025771;28;20202;-23
2023/10/28 02:51:32;;;;;;;1.33;1.23;;;;;;;22.18;63.13;96058.13;5021823;28;20225;-23
2023/10/28 02:53:59;;;;;;;1.40;1.30;;;;;;;22.17;63.18;96057.25;5022219;28;20293;-23
2023/10/28 02:56:26;;;;;;;1.27;1.17;;;;;;;22.17;63.57;96051.28;5019400;28;20688;-23
2023/10/28 02:58:52;;;;;;;1.40;1.30;;;;;;;22.15;63.12;96053.84;5029425;28;20201;-23
2023/10/28 03:01:19;;;;;;;1.40;1.30;;;;;;;22.15;63.24;96053.84;5021114;28;20226;-24
2023/10/28 03:03:46;;;;;;;1.63;1.50;;;;;;;22.15;63.75;96053.84;5027123;28;20569;-23
2023/10/28 03:06:12;;;;;;;1.97;1.20;;;;;;;22.14;63.08;96057.22;5025699;28;20197;-23
2023/10/28 03:08:39;;;;;;;1.30;1.20;;;;;;;22.14;63.24;96054.69;5017441;28;20210;-23
2023/10/28 03:11:06;;;;;;;1.20;1.10;;;;;;;22.13;63.39;96063.22;5028972;28;20656;-23
2023/10/28 03:13:33;;;;;;;1.47;1.37;;;;;;;22.13;63.22;96055.53;5027742;28;20208;-22
2023/10/28 03:15:59;;;;;;;1.03;1.03;;;;;;;22.12;63.50;96060.66;5032283;28;20197;-23
2023/10/28 03:18:26;;;;;;;1.13;1.10;;;;;;;22.11;63.33;96054.66;5026613;28;20198;-23
2023/10/28 03:20:55;;;;;;;2.03;1.30;;;;;;;22.12;63.43;96056.41;5023484;28;20405;-23
2023/10/28 03:23:22;;;;;;;1.33;1.23;;;;;;;22.13;63.51;96055.53;5031788;28;20664;-22
2023/10/28 03:25:49;;;;;;;1.40;1.30;;;;;;;22.14;63.48;96051.28;5029470;28;20248;-23
2023/10/28 03:28:16;;;;;;;1.30;1.20;;;;;;;22.15;63.46;96050.44;5031156;28;20201;-23
2023/10/28 03:30:42;;;;;;;1.30;1.20;;;;;;;22.16;63.44;96052.13;5023151;28;20199;-25
2023/10/28 03:33:09;;;;;;;1.30;1.20;;;;;;;22.16;63.44;96047.88;5031986;28;20260;-22
2023/10/28 03:35:37;;;;;;;1.20;1.20;;;;;;;22.16;63.56;96041.88;5031136;28;20292;-23
2023/10/28 03:38:03;;;;;;;1.27;1.17;;;;;;;22.16;63.35;96042.75;5028005;28;20255;-22
2023/10/28 03:40:30;;;;;;;1.50;1.27;;;;;;;22.16;63.32;96045.31;5031410;28;20218;-23
2023/10/28 03:42:56;;;;;;;1.30;1.20;;;;;;;22.17;63.46;96058.97;5022790;28;20213;-23
2023/10/28 03:45:23;;;;;;;1.30;1.20;;;;;;;22.18;63.43;96047.88;5027473;28;20280;-23
2023/10/28 03:47:49;;;;;;;1.30;1.20;;;;;;;22.18;63.76;96047.88;5026988;28;20204;-23
2023/10/28 03:50:16;;;;;;;2.40;1.30;;;;;;;22.18;63.31;96053.00;5030342;28;20224;-23
2023/10/28 03:52:43;;;;;;;1.53;1.10;;;;;;;22.19;63.52;96052.13;5029164;28;20213;-23
2023/10/28 03:55:10;;;;;;;1.10;1.10;;;;;;;22.19;63.43;96057.25;5030378;28;20198;-23
2023/10/28 03:57:37;;;;;;;1.30;1.20;;;;;;;22.20;63.60;96064.09;5031369;28;20615;-23
2023/10/28 04:00:06;;;;;;;1.00;1.00;;;;;;;22.19;63.42;96068.34;5025649;28;20201;-23
2023/10/28 04:02:33;;;;;;;1.20;1.10;;;;;;;22.19;63.42;96078.59;5026623;28;20226;-23
2023/10/28 04:04:59;;;;;;;1.03;1.03;;;;;;;22.20;63.52;96079.47;5031170;28;20614;-23
2023/10/28 04:07:26;;;;;;;1.40;1.30;;;;;;;22.14;63.51;96077.69;5031556;28;20579;-24
2023/10/28 04:09:52;;;;;;;1.30;1.20;;;;;;;22.19;63.43;96082.84;5031052;28;20247;-23
2023/10/28 04:12:19;;;;;;;1.20;1.10;;;;;;;22.20;63.57;96092.25;5030801;28;20696;-23
2023/10/28 04:14:46;;;;;;;1.37;1.27;;;;;;;22.19;63.49;96091.38;5025599;28;20291;-23
2023/10/28 04:17:12;;;;;;;1.30;1.20;;;;;;;22.18;63.49;96089.69;5026243;28;20286;-23
2023/10/28 04:19:39;;;;;;;1.67;1.30;;;;;;;22.17;63.38;96092.25;5031348;28;20205;-24
2023/10/28 04:22:06;;;;;;;1.23;1.13;;;;;;;22.17;63.53;96098.19;5019346;28;20308;-24
2023/10/28 04:24:33;;;;;;;1.27;1.20;;;;;;;22.17;63.44;96094.78;5028432;28;20644;-23
2023/10/28 04:26:59;;;;;;;1.10;1.00;;;;;;;22.16;63.56;96093.94;5027831;28;20209;-23
2023/10/28 04:29:26;;;;;;;1.10;1.10;;;;;;;22.16;63.67;96090.50;5024565;28;20213;-23
2023/10/28 04:31:52;;;;;;;1.30;1.20;;;;;;;22.16;63.50;96085.38;5024449;28;20213;-23
2023/10/28 04:34:19;;;;;;;1.40;1.30;;;;;;;22.17;63.52;96092.25;5021913;28;20209;-23
2023/10/28 04:36:46;;;;;;;1.30;1.20;;;;;;;22.17;63.61;96105.88;5026475;28;20292;-23
2023/10/28 04:39:12;;;;;;;1.63;1.40;;;;;;;22.17;63.63;96110.97;5031238;28;20256;-22
2023/10/28 04:41:39;;;;;;;1.30;1.20;;;;;;;22.18;63.58;96107.59;5013487;28;20257;-23
2023/10/28 04:44:05;;;;;;;1.10;1.10;;;;;;;22.18;63.51;96115.28;5030923;28;20744;-23
2023/10/28 04:46:32;;;;;;;1.60;1.10;;;;;;;22.18;63.43;96112.72;5029170;28;20245;-22
2023/10/28 04:48:59;;;;;;;1.83;1.23;;;;;;;22.19;63.68;96116.09;5029234;28;20244;-23
2023/10/28 04:51:25;;;;;;;1.20;1.10;;;;;;;22.16;63.41;96116.09;5019381;28;20632;-23
2023/10/28 04:53:52;;;;;;;1.33;1.23;;;;;;;22.19;63.55;96124.66;5024437;28;20197;-23
2023/10/28 04:56:18;;;;;;;1.10;1.10;;;;;;;22.20;63.50;96121.22;5025962;28;20241;-28
2023/10/28 04:58:45;;;;;;;1.33;1.13;;;;;;;22.20;63.51;96120.41;5024973;28;20194;-23
2023/10/28 05:01:12;;;;;;;1.23;1.13;;;;;;;22.20;63.85;96123.78;5024862;28;20688;-23
2023/10/28 05:03:38;;;;;;;1.40;1.20;;;;;;;22.20;63.63;96130.63;5028146;28;20305;-24
2023/10/28 05:06:06;;;;;;;1.30;1.20;;;;;;;22.20;63.20;96122.94;5019385;28;20198;-26
2023/10/28 05:08:32;;;;;;;1.20;1.10;;;;;;;22.19;63.63;96126.34;5024257;28;20210;-22
2023/10/28 05:10:59;;;;;;;1.00;1.00;;;;;;;22.19;63.50;96132.31;5026695;28;20194;-23
2023/10/28 05:13:25;;;;;;;1.20;1.10;;;;;;;22.19;63.32;96132.31;5027447;28;20245;-22
2023/10/28 05:15:52;;;;;;;1.20;1.10;;;;;;;22.17;63.44;96136.56;5030587;28;20648;-22
2023/10/28 05:18:19;;;;;;;1.20;1.10;;;;;;;22.17;63.61;96134.00;5030974;28;20216;-25
2023/10/28 05:20:46;;;;;;;1.47;1.30;;;;;;;22.18;63.54;96127.19;5023759;28;20688;-23
2023/10/28 05:23:13;;;;;;;1.20;1.10;;;;;;;22.19;63.20;96134.00;5030508;28;20221;-22
2023/10/28 05:25:40;;;;;;;1.33;1.03;;;;;;;22.18;64.02;96137.44;5028039;28;20255;-23
2023/10/28 05:28:06;;;;;;;1.10;1.10;;;;;;;22.17;63.60;96120.38;5026052;28;20601;-23
2023/10/28 05:30:33;;;;;;;1.73;1.10;;;;;;;22.19;63.60;96122.09;5020517;28;20202;-24
2023/10/28 05:33:00;;;;;;;1.17;1.10;;;;;;;22.19;63.59;96123.78;5026830;28;20925;-28
2023/10/28 05:35:27;;;;;;;1.20;1.10;;;;;;;22.20;63.60;96133.19;5029071;28;20216;-25
2023/10/28 05:37:54;;;;;;;1.00;1.00;;;;;;;22.19;63.74;96137.44;5029037;28;20213;-25
2023/10/28 05:40:20;;;;;;;1.10;1.10;;;;;;;22.20;63.63;96140.88;5021562;28;20583;-23
2023/10/28 05:42:47;;;;;;;1.20;1.10;;;;;;;22.21;63.43;96142.56;5027456;28;20607;-23
2023/10/28 05:45:14;;;;;;;1.27;1.17;;;;;;;22.21;63.69;96148.56;5020034;28;20293;-23
2023/10/28 05:47:41;;;;;;;1.10;1.10;;;;;;;22.20;63.68;96149.38;5025852;28;20668;-23
2023/10/28 05:50:08;;;;;;;1.20;1.10;;;;;;;22.20;63.69;96143.44;5026995;28;20201;-23
2023/10/28 05:52:35;;;;;;;1.10;1.10;;;;;;;22.20;63.57;96144.25;5033096;28;20736;-23
2023/10/28 05:55:02;;;;;;;1.20;1.10;;;;;;;22.19;63.05;96141.69;5033899;28;20197;-24
2023/10/28 05:57:29;;;;;;;1.33;1.23;;;;;;;22.19;63.50;96147.69;5032585;28;20388;-23
2023/10/28 05:59:56;;;;;;;2.47;1.00;;;;;;;22.18;63.05;96145.09;5033334;28;20619;-24
2023/10/28 06:02:24;;;;;;;1.10;1.10;;;;;;;22.19;62.88;96142.56;5043608;22;20279;-26
2023/10/28 06:04:52;;;;;;;1.30;1.20;;;;;;;22.18;62.96;96145.09;5031341;28;20231;-31
2023/10/28 06:07:19;;;;;;;1.20;1.10;;;;;;;22.18;63.25;96145.97;5033977;28;20209;-26
2023/10/28 06:09:47;;;;;;;1.93;1.17;;;;;;;22.17;63.01;96149.34;5034758;28;20202;-34
2023/10/28 06:12:14;;;;;;;1.87;1.37;;;;;;;22.15;60.81;96145.97;5025932;28;20305;-26
2023/10/28 06:14:42;;;;;;;4.83;1.43;;;;;;;22.14;59.19;96146.78;5014497;28;20294;-26
2023/10/28 06:17:09;;;;;;;1.83;1.30;;;;;;;22.14;58.09;96151.91;5013763;28;20288;-27
2023/10/28 06:19:35;;;;;;;2.17;1.50;;;;;;;22.12;56.93;96156.19;5014082;28;20657;-26
2023/10/28 06:22:02;;;;;;;2.73;1.20;;;;;;;22.11;56.10;96164.69;5013450;28;20280;-31
2023/10/28 06:24:29;;;;;;;2.57;1.70;;;;;;;22.11;55.39;96169.81;5010191;28;20198;-26
2023/10/28 06:26:57;;;;;;;1.87;1.27;;;;;;;22.10;54.52;96168.09;5014193;28;20202;-31
2023/10/28 06:29:24;;;;;;;1.97;1.53;;;;;;;22.10;53.97;96162.97;5014024;28;20214;-26
2023/10/28 06:31:51;;;;;;;3.07;1.53;;;;;;;22.09;53.58;96162.97;5013578;28;20568;-27
2023/10/28 06:34:17;;;;;;;4.10;1.77;;;;;;;;;;5013992;28;20202;-27
2023/10/28 06:36:44;;;;;;;2.80;1.57;;;;;;;22.08;53.29;96168.94;5013698;28;20202;-26
2023/10/28 06:39:10;;;;;;;2.70;1.80;;;;;;;22.07;54.06;96162.09;5013632;28;20536;-26
2023/10/28 06:41:37;;;;;;;2.40;1.37;;;;;;;22.06;54.74;96160.41;5013864;28;20657;-29
2023/10/28 06:44:05;;;;;;;4.17;1.70;;;;;;;22.06;55.62;96165.50;5013449;28;20198;-26
2023/10/28 06:46:32;;;;;;;2.70;1.60;;;;;;;22.04;55.51;96173.19;5013926;28;20207;-26
2023/10/28 06:48:59;;;;;;;2.03;1.50;;;;;;;22.05;56.35;96179.16;5013128;28;20205;-28
2023/10/28 06:51:26;;;;;;;2.43;1.47;;;;;;;22.05;56.67;96174.88;5013474;28;20674;-26
2023/10/28 06:53:53;;;;;;;6.80;1.60;;;;;;;22.06;57.13;96183.41;5010593;28;20257;-28
2023/10/28 06:56:19;;;;;;;4.10;1.43;;;;;;;;;;5013735;28;20273;-26
2023/10/28 06:58:45;;;;;;;1.93;1.50;;;;;;;;;;5013150;28;20199;-32
2023/10/28 07:01:12;;;;;;;2.33;1.47;;;;;;;;;;5013391;28;20777;-27
2023/10/28 07:03:39;;;;;;;2.13;1.43;;;;;;;22.08;58.66;96197.09;5012974;28;20285;-26
2023/10/28 07:06:09;;;;;;;2.13;1.43;;;;;;;22.08;58.83;96191.97;5013161;28;20198;-26
2023/10/28 07:08:38;;;;;;;2.20;1.37;;;;;;;22.09;59.05;96191.97;5013744;28;20198;-26
2023/10/28 07:11:04;;;;;;;1.60;1.20;;;;;;;22.10;59.15;96195.38;5013077;28;20202;-26
2023/10/28 07:13:32;;;;;;;2.00;1.33;;;;;;;22.10;59.40;96205.59;5013437;28;20222;-26
2023/10/28 07:16:05;;;;;;;2.20;1.53;;;;;;;22.10;59.67;96214.16;5011519;28;20674;-26
2023/10/28 07:18:32;;;;;;;3.07;1.37;;;;;;;22.10;59.64;96215.84;5012865;28;20256;-26
2023/10/28 07:21:00;;;;;;;2.83;1.60;;;;;;;22.09;59.48;96214.13;5012546;28;20199;-27
2023/10/28 07:23:27;;;;;;;2.27;1.40;;;;;;;22.09;59.55;96219.25;5013275;28;20268;-28
2023/10/28 07:25:54;;;;;;;1.53;1.43;;;;;;;22.09;59.75;96217.56;5012432;28;20198;-28
2023/10/28 07:28:21;;;;;;;1.73;1.33;;;;;;;22.08;59.85;96222.69;5008414;28;20210;-26
2023/10/28 07:30:51;;;;;;;2.67;1.30;;;;;;;22.08;59.76;96226.06;5009239;28;20253;-28
2023/10/28 07:33:18;;;;;;;1.83;1.43;;;;;;;22.09;60.12;96227.81;5011824;28;20225;-26
2023/10/28 07:35:48;;;;;;;1.67;1.47;;;;;;;22.09;60.24;96224.38;5012832;28;20202;-29
2023/10/28 07:38:15;;;;;;;1.40;1.30;;;;;;;;;;5011622;28;20214;-26
2023/10/28 07:40:42;;;;;;;2.73;1.70;;;;;;;22.08;58.28;96231.19;5012949;28;20198;-29
2023/10/28 07:43:11;;;;;;;2.80;1.53;;;;;;;22.06;58.24;96235.44;5012799;28;20693;-26
2023/10/28 07:45:41;;;;;;;2.27;1.53;;;;;;;22.09;58.72;96240.59;5012778;28;20257;-27
2023/10/28 07:48:11;;;;;;;3.17;1.30;;;;;;;22.08;58.02;96233.75;5012538;28;20621;-28
2023/10/28 07:50:38;;;;;;;1.37;1.27;;;;;;;22.10;57.58;96246.53;4994713;28;20637;-27
2023/10/28 07:53:05;;;;;;;2.97;1.40;;;;;;;22.11;57.96;96248.28;5011007;28;20288;-26
2023/10/28 07:55:32;;;;;;;2.23;1.50;;;;;;;22.12;58.48;96245.72;5011384;28;20209;-26
2023/10/28 07:57:59;;;;;;;1.60;1.40;;;;;;;22.12;58.75;96255.09;5012128;28;20751;-27
2023/10/28 08:00:26;;;;;;;2.60;1.40;;;;;;;22.14;59.20;96253.41;5012033;28;20226;-26
2023/10/28 08:02:53;;;;;;;1.97;1.60;;;;;;;22.15;59.38;96260.25;5011712;28;20317;-29
2023/10/28 08:05:19;;;;;;;1.73;1.30;;;;;;;22.16;59.58;96261.94;5011939;28;20289;-27
2023/10/28 08:07:46;;;;;;;1.50;1.40;;;;;;;22.07;59.73;96256.75;5012985;28;20672;-26
2023/10/28 08:10:14;;;;;;;1.40;1.30;;;;;;;22.10;59.78;96257.66;5011394;28;20198;-26
2023/10/28 08:12:40;;;;;;;1.67;1.27;;;;;;;22.17;59.66;96272.19;5012202;28;20214;-26
2023/10/28 08:15:07;;;;;;;1.50;1.40;;;;;;;22.17;59.82;96276.47;5011899;28;20233;-29
2023/10/28 08:17:34;;;;;;;2.17;1.47;;;;;;;22.16;59.67;96270.47;5011738;28;20253;-26
2023/10/28 08:20:02;;;;;;;1.40;1.30;;;;;;;22.16;59.76;96278.16;5005808;28;20210;-29
2023/10/28 08:22:29;;;;;;;1.63;1.30;;;;;;;22.16;59.85;96284.97;5008675;28;20312;-38
2023/10/28 08:24:59;;;;;;;2.23;1.50;;;;;;;22.16;60.12;96282.41;5008660;28;20217;-29
2023/10/28 08:27:26;;;;;;;1.33;1.23;;;;;;;22.17;60.21;96296.94;5009457;28;20624;-29
2023/10/28 08:29:54;;;;;;;1.90;1.53;;;;;;;22.17;59.18;96296.94;5010256;28;20198;-27
2023/10/28 08:32:20;;;;;;;1.83;1.50;;;;;;;22.16;58.69;96298.63;5011306;28;20218;-26
2023/10/28 08:34:47;;;;;;;3.43;1.93;;;;;;;22.17;58.73;96307.16;5011718;28;20297;-26
2023/10/28 08:37:14;;;;;;;2.13;1.70;;;;;;;22.17;58.99;96308.00;5011788;28;20225;-28
2023/10/28 08:39:41;;;;;;;1.60;1.50;;;;;;;22.16;59.04;96302.88;5012125;28;20264;-26
2023/10/28 08:42:07;;;;;;;5.87;2.07;;;;;;;21.95;57.68;96261.78;5009522;28;20222;-32
2023/10/28 08:44:34;;;;;;;5.17;2.00;;;;;;;22.14;58.13;96295.19;4979057;28;20487;-27
2023/10/28 08:47:06;;;;;;;6.90;1.80;;;;;;;22.14;58.34;96295.19;5007335;28;20206;-26
2023/10/28 08:49:36;;;;;;;5.00;1.77;;;;;;;22.15;58.60;96309.72;5010717;28;20300;-28
2023/10/28 08:52:03;;;;;;;7.37;2.20;;;;;;;22.05;58.69;96291.72;5007703;28;20254;-29
2023/10/28 08:54:30;;;;;;;3.50;2.00;;;;;;;22.13;58.82;96297.75;4972156;28;20294;-29
2023/10/28 08:56:57;;;;;;;4.53;1.90;;;;;;;22.15;59.10;96293.50;4990885;28;20573;-27
2023/10/28 08:59:25;;;;;;;5.60;1.50;;;;;;;22.13;59.44;96293.50;5008116;28;20293;-27
2023/10/28 09:01:52;;;;;;;2.97;1.70;;;;;;;22.15;59.56;96303.75;4989819;28;20222;-27
2023/10/28 09:04:21;;;;;;;2.00;1.50;;;;;;;22.15;59.64;96309.72;4988819;28;20256;-33
2023/10/28 09:06:48;;;;;;;1.57;1.47;;;;;;;22.16;59.77;96303.75;5008855;28;20205;-28
2023/10/28 09:09:20;;;;;;;2.43;1.50;;;;;;;22.16;59.93;96306.31;5009129;28;20210;-27
2023/10/28 09:11:48;;;;;;;4.43;1.57;;;;;;;22.17;60.03;96312.28;5008923;28;20677;-30
2023/10/28 09:14:14;;;;;;;2.43;1.50;;;;;;;22.17;60.13;96310.56;5008234;28;20206;-29
2023/10/28 09:16:41;;;;;;;2.40;1.57;;;;;;;22.18;60.11;96308.88;5008526;28;20704;-27
2023/10/28 09:19:20;;;;;;;2.30;1.60;;;;;;;22.18;60.17;96314.00;4990722;28;20276;-26
2023/10/28 09:21:49;;;;;;;1.60;1.40;;;;;;;22.17;60.25;96315.69;5010249;28;20230;-27
2023/10/28 09:24:16;;;;;;;1.60;1.50;;;;;;;22.18;59.85;96314.00;5012036;28;20206;-30
2023/10/28 09:26:43;;;;;;;1.70;1.40;;;;;;;22.18;60.25;96314.84;4995000;28;20198;-26
2023/10/28 09:29:09;;;;;;;3.67;1.67;;;;;;;22.18;60.42;96319.97;5011547;28;20203;-26
2023/10/28 09:31:37;;;;;;;3.50;1.80;;;;;;;22.18;60.34;96322.53;5012107;28;20585;-27
2023/10/28 09:34:05;;;;;;;1.50;1.40;;;;;;;22.19;60.41;96318.25;5012426;28;20216;-33
2023/10/28 09:36:32;;;;;;;2.30;1.73;;;;;;;22.18;60.29;96314.84;5011943;28;20232;-28
2023/10/28 09:38:59;;;;;;;2.47;1.50;;;;;;;22.19;60.34;96308.03;4994020;28;20293;-29
2023/10/28 09:41:25;;;;;;;2.13;1.40;;;;;;;22.17;60.38;96305.44;4963151;28;20211;-27
2023/10/28 09:43:52;;;;;;;1.83;1.50;;;;;;;22.19;60.44;96305.47;4994599;28;20222;-28
2023/10/28 09:46:20;;;;;;;1.73;1.50;;;;;;;22.16;60.41;96305.44;5012212;28;20233;-33
2023/10/28 09:48:48;;;;;;;2.33;1.30;;;;;;;22.17;60.42;96308.00;4990501;28;20202;-28
2023/10/28 09:51:24;;;;;;;4.60;1.53;;;;;;;22.16;60.70;96308.00;5004601;28;20305;-28
2023/10/28 09:53:52;;;;;;;1.33;1.23;;;;;;;22.16;60.62;96300.31;4993828;28;20222;-28
2023/10/28 09:56:18;;;;;;;1.97;1.43;;;;;;;22.15;60.46;96301.19;5010443;28;20210;-29
2023/10/28 09:58:50;;;;;;;1.60;1.50;;;;;;;22.16;60.80;96303.75;4977481;28;20214;-34
2023/10/28 10:01:38;;;;;;;3.10;1.50;;;;;;;22.16;60.95;96308.00;4994559;28;20237;-27
2023/10/28 10:04:16;;;;;;;1.90;1.50;;;;;;;22.16;60.83;96310.56;4979169;28;20267;-26
2023/10/28 10:06:43;;;;;;;2.30;1.60;;;;;;;22.17;60.89;96292.66;5009378;28;20200;-28
2023/10/28 10:09:18;;;;;;;1.50;1.40;;;;;;;22.17;60.91;96294.38;5011732;28;20235;-26
2023/10/28 10:11:45;;;;;;;1.33;1.23;;;;;;;22.17;60.71;96290.09;5007683;28;20688;-31
2023/10/28 10:14:12;;;;;;;2.47;1.40;;;;;;;22.17;60.88;96284.97;5011561;28;20737;-28
2023/10/28 10:16:49;;;;;;;3.40;1.50;;;;;;;22.18;60.82;96284.16;5011042;28;20202;-27
2023/10/28 10:19:21;;;;;;;1.87;1.60;;;;;;;22.13;60.96;96273.03;4993624;28;20206;-29
2023/10/28 10:21:51;;;;;;;2.53;1.57;;;;;;;22.17;60.78;96276.47;4974227;28;20607;-27
2023/10/28 10:24:22;;;;;;;1.93;1.30;;;;;;;22.17;61.00;96276.47;5011024;28;20244;-27
2023/10/28 10:26:58;;;;;;;1.70;1.30;;;;;;;22.19;60.94;96282.44;5010746;28;20224;-28
2023/10/28 10:29:29;;;;;;;2.10;1.60;;;;;;;22.17;60.78;96282.41;4992232;28;20206;-29
2023/10/28 10:31:56;;;;;;;1.70;1.60;;;;;;;22.20;60.47;96286.72;4992991;28;20234;-26
2023/10/28 10:34:43;;;;;;;1.73;1.60;;;;;;;22.19;60.64;96283.28;5009619;28;20263;-27
2023/10/28 10:37:23;;;;;;;1.87;1.57;;;;;;;22.19;60.67;96287.53;5010028;28;20220;-26
2023/10/28 10:39:49;;;;;;;3.90;1.60;;;;;;;22.18;60.66;96289.28;5007883;28;20237;-32
2023/10/28 10:42:16;;;;;;;1.87;1.50;;;;;;;22.17;60.87;96276.47;4992894;28;20582;-28
2023/10/28 10:44:42;;;;;;;1.73;1.63;;;;;;;22.18;60.67;96285.84;4993264;28;20234;-31
2023/10/28 10:47:09;;;;;;;1.50;1.40;;;;;;;22.17;60.70;96276.47;5011108;28;20297;-30
2023/10/28 10:49:38;;;;;;;2.10;1.50;;;;;;;22.18;60.93;96290.97;5010283;28;20587;-29
2023/10/28 10:52:06;;;;;;;1.50;1.40;;;;;;;22.17;60.75;96284.16;5010289;28;20222;-36
2023/10/28 10:54:42;;;;;;;2.13;1.60;;;;;;;22.18;61.09;96289.28;5010969;28;20727;-33
2023/10/28 10:57:09;;;;;;;1.53;1.43;;;;;;;22.16;60.87;96283.28;5011067;28;20206;-27
2023/10/28 10:59:38;;;;;;;2.13;1.40;;;;;;;22.18;61.11;96290.97;5010418;28;20678;-39
2023/10/28 11:02:04;;;;;;;1.57;1.40;;;;;;;22.18;61.08;96284.16;5009964;28;20229;-32
2023/10/28 11:04:34;;;;;;;2.47;1.57;;;;;;;22.18;61.32;96289.28;5010573;28;20586;-26
2023/10/28 11:07:02;;;;;;;1.73;1.60;;;;;;;22.20;61.31;96289.28;5007305;28;20203;-27
2023/10/28 11:09:29;;;;;;;2.50;1.50;;;;;;;22.19;61.17;96288.41;5009198;28;20202;-28
2023/10/28 11:11:56;;;;;;;2.17;1.43;;;;;;;22.20;61.07;96286.72;5010170;28;20272;-28
2023/10/28 11:14:23;;;;;;;1.80;1.40;;;;;;;22.20;61.46;96284.16;5009682;28;20210;-29
2023/10/28 11:16:50;;;;;;;1.83;1.50;;;;;;;22.18;61.16;96281.59;4972851;28;20234;-27
2023/10/28 11:19:17;;;;;;;1.50;1.40;;;;;;;22.21;61.29;96291.84;4992261;28;20256;-27
2023/10/28 11:21:44;;;;;;;1.50;1.40;;;;;;;22.18;61.27;96278.16;5009120;28;20206;-33
2023/10/28 11:24:11;;;;;;;4.57;1.53;;;;;;;22.22;61.22;96282.44;4991725;28;20226;-29
2023/10/28 11:26:38;;;;;;;1.93;1.50;;;;;;;22.21;61.09;96290.97;5009822;28;20750;-26
2023/10/28 11:29:09;;;;;;;2.43;1.60;;;;;;;22.21;61.08;96290.97;5009395;28;20202;-26
2023/10/28 11:31:39;;;;;;;4.07;1.70;;;;;;;22.19;61.21;96303.78;4992732;28;20677;-30
2023/10/28 11:34:06;;;;;;;1.30;1.20;;;;;;;22.19;61.01;96293.53;5007418;28;20673;-27
2023/10/28 11:36:33;;;;;;;1.50;1.40;;;;;;;22.19;61.24;96292.66;5010087;28;20206;-27
2023/10/28 11:39:13;;;;;;;1.67;1.57;;;;;;;21.94;61.29;96253.28;4976546;28;20261;-41